Time;durP1;ratioP1;P1;durP2;ratioP2;P2;SDS_P1;SDS_P2;PMS_P1;PMS_P2;Temp;Humidity;BMP_temperature;BMP_pressure;BME280_temperature;BME280_humidity;BME280_pressure;Samples;Min_cycle;Max_cycle;Signal;HPM_P1;HPM_P2
2024/02/12 00:02:03;;;;;;;38.47;18.83;;;;;;;;;;5068115;28;25058;-73
2024/02/12 00:04:29;;;;;;;41.63;21.10;;;;;;;;;;5070494;28;25054;-73
2024/02/12 00:06:58;;;;;;;44.45;20.88;;;;;;;;;;5070673;28;25080;-73
2024/02/12 00:09:25;;;;;;;52.35;22.55;;;;;;;;;;5070636;28;25090;-72
2024/02/12 00:11:51;;;;;;;40.35;22.35;;;;;;;;;;5069550;28;25061;-73
2024/02/12 00:14:17;;;;;;;45.03;22.45;;;;;;;;;;5068973;28;25074;-75
2024/02/12 00:16:45;;;;;;;41.13;22.20;;;;;;;;;;5069502;28;25064;-74
2024/02/12 00:19:12;;;;;;;47.60;21.02;;;;;;;;;;5073507;28;25056;-74
2024/02/12 00:21:45;;;;;;;40.00;21.92;;;;;;;;;;5072635;28;25110;-73
2024/02/12 00:24:11;;;;;;;39.90;21.90;;;;;;;;;;5068468;28;25057;-74
2024/02/12 00:26:40;;;;;;;50.30;24.95;;;;;;;;;;5069796;28;25082;-74
2024/02/12 00:29:08;;;;;;;45.17;21.48;;;;;;;;;;5072322;28;25083;-73
2024/02/12 00:31:35;;;;;;;51.42;24.60;;;;;;;;;;5066165;28;25094;-75
2024/02/12 00:34:01;;;;;;;49.95;24.40;;;;;;;;;;5064325;28;25084;-73
2024/02/12 00:36:30;;;;;;;47.60;21.80;;;;;;;;;;5075173;28;25075;-72
2024/02/12 00:38:57;;;;;;;49.92;22.77;;;;;;;;;;5067502;28;25062;-74
2024/02/12 00:41:23;;;;;;;46.80;24.60;;;;;;;;;;5074395;28;25061;-75
2024/02/12 00:43:53;;;;;;;47.25;23.27;;;;;;;;;;5074002;28;25114;-72
2024/02/12 00:46:19;;;;;;;40.20;23.80;;;;;;;;;;5076530;28;25059;-73
2024/02/12 00:48:45;;;;;;;45.28;24.73;;;;;;;;;;5065166;28;25060;-72
2024/02/12 00:51:12;;;;;;;44.55;24.77;;;;;;;;;;5077398;28;25079;-73
2024/02/12 00:53:40;;;;;;;49.75;26.05;;;;;;;;;;5067437;28;25060;-72
2024/02/12 00:56:06;;;;;;;39.60;22.00;;;;;;;;;;5061279;28;25174;-75
2024/02/12 00:58:33;;;;;;;39.00;23.20;;;;;;;;;;5067255;28;25059;-73
2024/02/12 01:00:59;;;;;;;48.22;25.13;;;;;;;;;;5059921;28;25181;-75
2024/02/12 01:03:26;;;;;;;56.92;28.10;;;;;;;;;;5058647;28;25126;-73
2024/02/12 01:05:53;;;;;;;52.65;26.27;;;;;;;;;;5075305;28;25062;-75
2024/02/12 01:08:20;;;;;;;46.90;25.60;;;;;;;;;;5071520;28;25079;-76
2024/02/12 01:10:47;;;;;;;50.45;24.90;;;;;;;;;;5071027;28;25054;-71
2024/02/12 01:13:13;;;;;;;49.95;25.83;;;;;;;;;;5060467;28;25136;-73
2024/02/12 01:15:40;;;;;;;44.22;25.38;;;;;;;;;;5065570;28;25161;-76
2024/02/12 01:18:07;;;;;;;47.33;25.92;;;;;;;;;;5065172;28;25064;-72
2024/02/12 01:20:34;;;;;;;46.85;25.45;;;;;;;;;;5063830;28;25077;-76
2024/02/12 01:23:00;;;;;;;48.70;27.70;;;;;;;;;;5065601;28;25064;-76
2024/02/12 01:25:26;;;;;;;51.75;26.65;;;;;;;;;;5073742;28;25081;-72
2024/02/12 01:27:53;;;;;;;53.45;27.88;;;;;;;;;;5071602;28;25097;-73
2024/02/12 01:30:19;;;;;;;48.67;23.98;;;;;;;;;;5079028;28;25101;-75
2024/02/12 01:32:45;;;;;;;43.60;24.08;;;;;;;;;;5065901;28;25130;-75
2024/02/12 01:35:12;;;;;;;48.65;24.52;;;;;;;;;;5077242;28;25126;-75
2024/02/12 01:37:38;;;;;;;50.67;25.50;;;;;;;;;;5077212;28;25084;-74
2024/02/12 01:40:04;;;;;;;43.25;24.70;;;;;;;;;;5076642;28;25104;-74
2024/02/12 01:42:32;;;;;;;40.92;23.77;;;;;;;;;;5072607;28;25062;-74
2024/02/12 01:45:11;;;;;;;53.58;25.48;;;;;;;;;;5062605;28;25072;-73
2024/02/12 01:47:37;;;;;;;49.00;24.90;;;;;;;;;;5063313;28;25051;-72
2024/02/12 01:50:04;;;;;;;53.42;24.77;;;;;;;;;;5058126;28;25073;-74
2024/02/12 01:52:30;;;;;;;45.53;24.83;;;;;;;;;;5066519;28;25054;-74
2024/02/12 01:54:58;;;;;;;49.17;25.55;;;;;;;;;;5069780;28;25065;-76
2024/02/12 01:57:24;;;;;;;51.58;25.92;;;;;;;;;;5064023;28;25109;-74
2024/02/12 01:59:51;;;;;;;46.88;24.95;;;;;;;;;;5066179;28;25068;-78
2024/02/12 02:02:17;;;;;;;50.72;24.67;;;;;;;;;;5071424;28;25099;-77
2024/02/12 02:04:43;;;;;;;51.33;25.63;;;;;;;;;;5058130;28;25058;-74
2024/02/12 02:07:19;;;;;;;57.47;27.13;;;;;;;;;;5057022;28;25077;-74
2024/02/12 02:09:46;;;;;;;49.42;27.85;;;;;;;;;;5063605;28;25063;-74
2024/02/12 02:12:14;;;;;;;56.55;27.67;;;;;;;;;;5064802;28;25074;-75
2024/02/12 02:14:40;;;;;;;50.40;26.13;;;;;;;;;;5062374;28;25144;-78
2024/02/12 02:17:06;;;;;;;56.05;28.67;;;;;;;;;;5064822;28;25081;-73
2024/02/12 02:19:35;;;;;;;55.15;26.42;;;;;;;;;;5069049;28;25077;-73
2024/02/12 02:22:02;;;;;;;57.85;26.27;;;;;;;;;;5061772;28;25099;-73
2024/02/12 02:24:29;;;;;;;54.33;28.33;;;;;;;;;;5065012;28;25134;-75
2024/02/12 02:26:56;;;;;;;51.58;26.67;;;;;;;;;;5062733;28;25073;-75
2024/02/12 02:29:22;;;;;;;64.30;29.25;;;;;;;;;;5073995;28;25127;-74
2024/02/12 02:31:48;;;;;;;57.60;28.13;;;;;;;;;;5068560;28;25173;-74
2024/02/12 02:34:14;;;;;;;49.47;25.98;;;;;;;;;;5064206;28;25050;-75
2024/02/12 02:36:46;;;;;;;58.58;29.77;;;;;;;;;;5061833;28;25085;-75
2024/02/12 02:39:12;;;;;;;45.00;24.35;;;;;;;;;;5064520;28;25088;-74
2024/02/12 02:41:42;;;;;;;61.55;28.95;;;;;;;;;;5063460;28;25169;-73
2024/02/12 02:44:08;;;;;;;51.17;26.27;;;;;;;;;;5069056;28;25065;-74
2024/02/12 02:46:36;;;;;;;59.85;27.73;;;;;;;;;;5063658;28;25126;-75
2024/02/12 02:49:03;;;;;;;55.22;26.27;;;;;;;;;;5062749;28;25142;-77
2024/02/12 02:51:29;;;;;;;54.42;27.50;;;;;;;;;;5068021;28;25053;-71
2024/02/12 02:53:56;;;;;;;60.55;29.92;;;;;;;;;;5039681;28;25070;-74
2024/02/12 02:56:22;;;;;;;62.15;28.02;;;;;;;;;;5040856;28;25074;-75
2024/02/12 02:58:49;;;;;;;62.53;28.63;;;;;;;;;;5047381;28;25164;-75
2024/02/12 03:01:21;;;;;;;60.45;28.40;;;;;;;;;;5046159;28;25079;-74
2024/02/12 03:03:51;;;;;;;64.30;29.20;;;;;;;;;;5050936;28;25053;-75
2024/02/12 03:06:21;;;;;;;47.13;24.75;;;;;;;;;;5057629;28;25144;-74
2024/02/12 03:08:50;;;;;;;50.97;27.00;;;;;;;;;;5044832;28;25056;-73
2024/02/12 03:11:21;;;;;;;60.15;27.42;;;;;;;;;;5052648;28;25074;-75
2024/02/12 03:13:48;;;;;;;59.40;29.50;;;;;;;;;;5045405;28;25058;-71
2024/02/12 03:16:15;;;;;;;64.90;29.38;;;;;;;;;;5048234;28;25082;-73
2024/02/12 03:18:41;;;;;;;50.90;25.90;;;;;;;;;;5056307;28;25090;-74
2024/02/12 03:21:09;;;;;;;67.30;29.98;;;;;;;;;;5049287;28;25076;-74
2024/02/12 03:23:35;;;;;;;61.92;31.48;;;;;;;;;;5056369;28;25110;-74
2024/02/12 03:26:04;;;;;;;62.42;30.75;;;;;;;;;;5048587;28;25057;-73
2024/02/12 03:28:31;;;;;;;51.70;27.13;;;;;;;;;;5051128;28;25063;-72
2024/02/12 03:30:57;;;;;;;69.00;31.63;;;;;;;;;;5054975;28;25074;-73
2024/02/12 03:33:23;;;;;;;63.38;30.55;;;;;;;;;;5042663;28;25069;-73
2024/02/12 03:35:49;;;;;;;66.90;33.60;;;;;;;;;;5053758;28;25077;-76
2024/02/12 03:38:15;;;;;;;65.75;32.38;;;;;;;;;;5053225;28;25103;-73
2024/02/12 03:40:42;;;;;;;63.70;30.13;;;;;;;;;;5033966;28;25056;-77
2024/02/12 03:43:10;;;;;;;71.78;32.67;;;;;;;;;;5038733;28;25073;-74
2024/02/12 03:45:36;;;;;;;55.80;29.50;;;;;;;;;;5054285;28;25062;-77
2024/02/12 04:01:54;;;;;;;52.53;28.42;;;;;;;;;;5054878;28;25044;-76
2024/02/12 04:04:20;;;;;;;66.03;30.85;;;;;;;;;;5044130;28;25158;-75
2024/02/12 04:06:49;;;;;;;67.93;31.08;;;;;;;;;;5047061;28;25093;-75
2024/02/12 04:09:16;;;;;;;69.47;32.83;;;;;;;;;;5054527;28;25086;-72
2024/02/12 04:11:42;;;;;;;52.95;29.40;;;;;;;;;;5069753;28;25058;-76
2024/02/12 04:14:09;;;;;;;67.25;31.52;;;;;;;;;;5065862;28;25055;-72
2024/02/12 04:16:38;;;;;;;72.78;32.83;;;;;;;;;;5067577;28;25055;-70
2024/02/12 04:19:05;;;;;;;58.40;30.05;;;;;;;;;;5066906;28;25050;-73
2024/02/12 04:21:32;;;;;;;55.38;28.92;;;;;;;;;;5068531;28;25074;-71
2024/02/12 04:24:04;;;;;;;66.22;30.63;;;;;;;;;;5069627;28;25074;-75
2024/02/12 04:26:30;;;;;;;63.30;30.23;;;;;;;;;;5062658;28;25128;-74
2024/02/12 04:28:57;;;;;;;66.97;30.58;;;;;;;;;;5064961;28;25090;-72
2024/02/12 04:31:25;;;;;;;60.03;29.63;;;;;;;;;;5073228;28;25068;-75
2024/02/12 04:33:51;;;;;;;48.70;26.65;;;;;;;;;;5055568;28;25096;-74
2024/02/12 04:36:20;;;;;;;53.45;28.92;;;;;;;;;;5068657;28;25079;-74
2024/02/12 04:38:46;;;;;;;47.00;27.45;;;;;;;;;;5048665;28;25191;-74
2024/02/12 04:41:13;;;;;;;52.60;27.75;;;;;;;;;;5044223;28;25069;-77
2024/02/12 04:43:40;;;;;;;53.65;28.48;;;;;;;;;;5039190;28;25087;-75
2024/02/12 04:46:08;;;;;;;48.40;25.85;;;;;;;;;;5049744;28;25139;-74
2024/02/12 04:48:34;;;;;;;52.25;29.20;;;;;;;;;;5043572;28;25083;-72
2024/02/12 04:51:00;;;;;;;61.75;30.55;;;;;;;;;;5049487;28;25065;-74
2024/02/12 04:53:26;;;;;;;56.42;27.85;;;;;;;;;;5039102;28;25071;-75
2024/02/12 04:55:52;;;;;;;57.38;29.90;;;;;;;;;;5051000;28;25077;-79
2024/02/12 04:58:18;;;;;;;54.92;27.02;;;;;;;;;;5054434;28;25053;-76
2024/02/12 05:00:44;;;;;;;49.58;26.60;;;;;;;;;;5058754;28;25077;-75
2024/02/12 05:03:10;;;;;;;45.30;25.65;;;;;;;;;;5053962;28;25056;-76
2024/02/12 05:05:36;;;;;;;49.33;25.67;;;;;;;;;;5050092;28;25055;-75
2024/02/12 05:08:06;;;;;;;43.40;23.30;;;;;;;;;;5047990;28;25100;-75
2024/02/12 05:10:32;;;;;;;42.00;24.08;;;;;;;;;;5049764;28;25058;-77
2024/02/12 05:12:59;;;;;;;51.30;25.73;;;;;;;;;;5060363;28;25092;-72
2024/02/12 05:15:26;;;;;;;36.17;22.02;;;;;;;;;;5055309;28;25065;-72
2024/02/12 05:17:54;;;;;;;41.33;23.80;;;;;;;;;;5070377;28;25159;-73
2024/02/12 05:23:10;;;;;;;41.47;23.30;;;;;;;;;;5074733;28;25159;-74
2024/02/12 05:25:39;;;;;;;37.38;23.70;;;;;;;;;;5073449;28;25064;-74
2024/02/12 05:28:05;;;;;;;49.67;24.10;;;;;;;;;;5079437;28;25073;-72
2024/02/12 05:30:31;;;;;;;35.63;21.63;;;;;;;;;;5069558;28;25057;-72
2024/02/12 05:32:58;;;;;;;53.33;25.48;;;;;;;;;;5072262;28;25060;-71
2024/02/12 05:35:24;;;;;;;43.67;23.85;;;;;;;;;;5074663;28;25081;-75
2024/02/12 05:37:51;;;;;;;49.08;24.27;;;;;;;;;;5070063;28;25048;-75
2024/02/12 05:40:18;;;;;;;46.00;24.27;;;;;;;;;;5063364;28;25075;-74
2024/02/12 05:42:44;;;;;;;47.35;25.08;;;;;;;;;;5072058;28;25070;-76
2024/02/12 05:45:10;;;;;;;45.40;25.23;;;;;;;;;;5056118;28;25054;-75
2024/02/12 05:47:36;;;;;;;46.75;26.33;;;;;;;;;;5049182;28;25059;-75
2024/02/12 05:50:02;;;;;;;44.83;24.88;;;;;;;;;;5044676;28;25061;-72
2024/02/12 05:52:29;;;;;;;44.72;26.15;;;;;;;;;;5049275;28;25046;-73
2024/02/12 05:54:55;;;;;;;47.80;25.50;;;;;;;;;;5046909;28;25087;-73
2024/02/12 05:57:21;;;;;;;51.15;27.48;;;;;;;;;;5050499;28;25078;-75
2024/02/12 05:59:47;;;;;;;43.45;24.85;;;;;;;;;;5048320;23;25074;-64
2024/02/12 06:02:13;;;;;;;45.45;25.17;;;;;;;;;;4997643;28;25107;-66
2024/02/12 06:04:39;;;;;;;55.65;26.45;;;;;;;;;;4982308;28;25065;-64
2024/02/12 06:07:06;;;;;;;52.88;26.27;;;;;;;;;;4999319;28;25124;-65
2024/02/12 06:09:32;;;;;;;46.92;27.27;;;;;;;;;;5002368;28;25082;-63
2024/02/12 06:11:58;;;;;;;44.15;26.58;;;;;;;;;;5006746;28;25066;-64
2024/02/12 06:14:24;;;;;;;44.72;24.27;;;;;;;;;;5003978;28;25092;-65
2024/02/12 06:16:50;;;;;;;53.80;26.88;;;;;;;;;;5005857;28;25090;-65
2024/02/12 06:19:16;;;;;;;48.20;25.80;;;;;;;;;;4999761;28;25057;-66
2024/02/12 06:21:45;;;;;;;53.17;28.27;;;;;;;;;;5002421;28;25065;-66
2024/02/12 06:24:11;;;;;;;52.63;29.10;;;;;;;;;;5002095;28;25097;-65
2024/02/12 06:26:38;;;;;;;50.70;27.05;;;;;;;;;;4996753;28;25063;-65
2024/02/12 06:29:04;;;;;;;52.15;29.77;;;;;;;;;;5004657;28;25160;-65
2024/02/12 06:31:31;;;;;;;50.72;26.92;;;;;;;;;;5000561;28;25090;-65
2024/02/12 06:33:58;;;;;;;47.55;27.77;;;;;;;;;;5003442;28;25086;-65
2024/02/12 06:36:28;;;;;;;54.05;29.30;;;;;;;;;;5005989;28;25052;-67
2024/02/12 06:38:54;;;;;;;54.92;29.85;;;;;;;;;;5005922;28;25048;-64
2024/02/12 06:41:20;;;;;;;56.13;30.73;;;;;;;;;;5000130;28;25069;-68
2024/02/12 06:43:46;;;;;;;47.13;27.30;;;;;;;;;;4983153;28;25076;-66
2024/02/12 06:46:12;;;;;;;64.47;30.98;;;;;;;;;;5000423;28;25086;-64
2024/02/12 06:48:40;;;;;;;59.35;31.08;;;;;;;;;;5004513;28;25052;-64
2024/02/12 06:51:08;;;;;;;67.03;31.08;;;;;;;;;;5001047;28;25095;-65
2024/02/12 06:53:36;;;;;;;56.75;31.50;;;;;;;;;;5002640;28;25054;-64
2024/02/12 06:56:03;;;;;;;56.97;31.30;;;;;;;;;;4997491;28;25071;-63
2024/02/12 06:58:29;;;;;;;67.90;32.60;;;;;;;;;;5001907;28;25078;-64
2024/02/12 07:00:57;;;;;;;61.15;31.55;;;;;;;;;;5005968;28;25083;-64
2024/02/12 07:03:23;;;;;;;75.75;35.58;;;;;;;;;;5004071;28;25125;-65
2024/02/12 07:05:49;;;;;;;66.68;31.92;;;;;;;;;;4997002;28;25063;-66
2024/02/12 07:08:18;;;;;;;60.00;32.15;;;;;;;;;;5002482;28;25074;-65
2024/02/12 07:10:44;;;;;;;81.63;35.40;;;;;;;;;;5005053;28;25064;-65
2024/02/12 07:13:10;;;;;;;69.32;33.70;;;;;;;;;;5001270;28;25141;-65
2024/02/12 07:15:36;;;;;;;53.55;29.02;;;;;;;;;;5004014;28;25076;-64
2024/02/12 07:18:02;;;;;;;55.00;29.90;;;;;;;;;;5002623;28;25070;-65
2024/02/12 07:20:28;;;;;;;58.67;31.80;;;;;;;;;;5012096;28;25073;-64
2024/02/12 07:22:55;;;;;;;63.40;32.35;;;;;;;;;;5016037;28;25084;-64
2024/02/12 07:25:21;;;;;;;72.13;34.88;;;;;;;;;;5023749;28;25095;-65
2024/02/12 07:27:47;;;;;;;61.88;33.15;;;;;;;;;;5027655;28;25063;-64
2024/02/12 07:30:14;;;;;;;69.75;34.35;;;;;;;;;;5023513;28;25139;-65
2024/02/12 07:32:40;;;;;;;61.35;33.13;;;;;;;;;;5010285;28;25104;-66
2024/02/12 07:35:08;;;;;;;69.88;35.92;;;;;;;;;;5005647;28;25134;-64
2024/02/12 07:37:35;;;;;;;73.72;35.35;;;;;;;;;;4997138;28;25080;-64
2024/02/12 07:40:01;;;;;;;64.97;31.02;;;;;;;;;;4999264;28;25104;-65
2024/02/12 07:42:27;;;;;;;58.50;31.42;;;;;;;;;;4996774;28;25158;-65
2024/02/12 07:44:54;;;;;;;55.72;31.65;;;;;;;;;;5007141;28;25068;-65
2024/02/12 07:47:20;;;;;;;74.18;33.63;;;;;;;;;;4997712;28;25103;-68
2024/02/12 07:49:46;;;;;;;57.05;30.77;;;;;;;;;;4999703;28;25044;-65
2024/02/12 07:52:15;;;;;;;42.88;26.05;;;;;;;;;;5003639;28;25053;-65
2024/02/12 07:54:44;;;;;;;66.70;33.05;;;;;;;;;;5003491;28;25165;-64
2024/02/12 07:57:12;;;;;;;53.70;28.92;;;;;;;;;;5001358;28;25169;-65
2024/02/12 07:59:38;;;;;;;46.95;26.50;;;;;;;;;;5005471;28;25075;-64
2024/02/12 08:02:06;;;;;;;56.85;30.38;;;;;;;;;;5004539;28;25070;-65
2024/02/12 08:04:32;;;;;;;47.20;25.77;;;;;;;;;;4999246;28;25135;-66
2024/02/12 08:06:58;;;;;;;51.20;27.73;;;;;;;;;;5005846;28;25133;-65
2024/02/12 08:09:24;;;;;;;51.33;27.35;;;;;;;;;;4988568;28;25079;-63
2024/02/12 08:11:50;;;;;;;51.28;25.05;;;;;;;;;;4985385;28;25051;-65
2024/02/12 08:14:17;;;;;;;49.95;23.88;;;;;;;;;;5006542;28;25065;-64
2024/02/12 08:16:46;;;;;;;51.45;24.52;;;;;;;;;;4996395;28;25055;-65
2024/02/12 08:19:12;;;;;;;46.50;22.30;;;;;;;;;;4999997;28;25081;-64
2024/02/12 08:21:38;;;;;;;45.50;23.58;;;;;;;;;;5001939;28;25167;-64
2024/02/12 08:24:04;;;;;;;48.75;22.58;;;;;;;;;;4996848;28;25066;-66
2024/02/12 08:26:30;;;;;;;43.67;22.65;;;;;;;;;;4999372;28;25147;-65
2024/02/12 08:28:58;;;;;;;46.47;23.38;;;;;;;;;;4994971;28;25113;-64
2024/02/12 08:31:24;;;;;;;34.58;19.83;;;;;;;;;;5001869;28;25068;-65
2024/02/12 08:33:50;;;;;;;45.50;22.02;;;;;;;;;;5000092;28;25097;-67
2024/02/12 08:36:17;;;;;;;35.92;18.38;;;;;;;;;;5001355;28;25065;-65
2024/02/12 08:38:43;;;;;;;44.70;20.90;;;;;;;;;;5001242;28;25104;-66
2024/02/12 08:41:09;;;;;;;38.00;17.38;;;;;;;;;;4997792;28;25050;-64
2024/02/12 08:43:36;;;;;;;38.08;17.40;;;;;;;;;;5005607;28;25108;-65
2024/02/12 08:46:02;;;;;;;41.42;17.50;;;;;;;;;;5000069;28;25093;-65
2024/02/12 08:48:28;;;;;;;30.08;17.38;;;;;;;;;;4998275;28;25061;-64
2024/02/12 08:50:54;;;;;;;30.15;15.32;;;;;;;;;;5004267;28;25089;-64
2024/02/12 08:53:20;;;;;;;30.83;16.73;;;;;;;;;;5000243;28;25095;-65
2024/02/12 08:55:46;;;;;;;33.95;16.55;;;;;;;;;;4997872;28;25141;-66
2024/02/12 08:58:13;;;;;;;38.30;17.63;;;;;;;;;;5000098;28;25055;-64
2024/02/12 09:00:39;;;;;;;37.15;17.23;;;;;;;;;;4999372;28;25089;-67
2024/02/12 09:03:05;;;;;;;34.10;15.10;;;;;;;;;;4998202;28;25100;-64
2024/02/12 09:05:31;;;;;;;35.25;15.70;;;;;;;;;;4999391;28;25154;-65
2024/02/12 09:07:57;;;;;;;38.55;17.38;;;;;;;;;;5003716;28;25054;-65
2024/02/12 09:10:23;;;;;;;33.30;16.17;;;;;;;;;;4999267;28;25096;-65
2024/02/12 09:12:51;;;;;;;29.30;16.08;;;;;;;;;;5002228;28;25155;-66
2024/02/12 09:15:17;;;;;;;36.60;18.05;;;;;;;;;;5005854;28;25097;-65
2024/02/12 09:17:46;;;;;;;34.42;16.27;;;;;;;;;;5005398;28;25105;-64
2024/02/12 09:20:13;;;;;;;31.50;16.35;;;;;;;;;;5003727;28;25082;-65
2024/02/12 09:22:39;;;;;;;36.20;16.85;;;;;;;;;;5002259;28;25065;-64
2024/02/12 09:25:09;;;;;;;30.40;16.45;;;;;;;;;;5001869;28;26185;-67
2024/02/12 09:27:35;;;;;;;32.70;17.20;;;;;;;;;;5006693;28;25173;-65
2024/02/12 09:30:06;;;;;;;33.25;17.15;;;;;;;;;;5002528;28;25048;-64
2024/02/12 09:32:33;;;;;;;27.65;16.55;;;;;;;;;;4999994;28;25065;-65
2024/02/12 09:34:59;;;;;;;36.80;17.75;;;;;;;;;;5000186;28;25073;-64
2024/02/12 09:37:29;;;;;;;36.28;18.27;;;;;;;;;;5001374;28;25077;-63
2024/02/12 09:39:56;;;;;;;38.10;18.27;;;;;;;;;;5007503;28;25065;-65
2024/02/12 09:42:22;;;;;;;34.85;17.58;;;;;;;;;;5003195;28;25130;-65
2024/02/12 09:44:48;;;;;;;37.70;19.25;;;;;;;;;;5012266;28;25065;-64
2024/02/12 09:47:18;;;;;;;34.70;17.83;;;;;;;;;;5008344;28;25049;-63
2024/02/12 09:49:44;;;;;;;34.05;20.00;;;;;;;;;;5019471;28;25055;-64
2024/02/12 09:52:13;;;;;;;38.53;19.23;;;;;;;;;;5018289;28;25081;-63
2024/02/12 09:54:39;;;;;;;32.97;19.48;;;;;;;;;;5011670;28;25055;-65
2024/02/12 09:57:05;;;;;;;33.80;17.05;;;;;;;;;;5000703;28;25176;-65
2024/02/12 09:59:32;;;;;;;29.25;15.65;;;;;;;;;;5005945;28;25102;-65
2024/02/12 10:01:58;;;;;;;31.88;16.15;;;;;;;;;;5003262;28;25117;-66
2024/02/12 10:04:25;;;;;;;30.08;17.67;;;;;;;;;;5001464;28;25053;-68
2024/02/12 10:06:55;;;;;;;27.42;15.07;;;;;;;;;;5002835;28;25076;-67
2024/02/12 10:09:21;;;;;;;27.27;15.70;;;;;;;;;;4996680;28;25070;-67
2024/02/12 10:11:47;;;;;;;28.65;14.02;;;;;;;;;;4998971;28;25157;-67
2024/02/12 10:14:13;;;;;;;32.63;14.82;;;;;;;;;;5001260;28;25100;-67
2024/02/12 10:16:39;;;;;;;33.33;13.55;;;;;;;;;;5000330;28;25104;-67
2024/02/12 10:19:05;;;;;;;26.00;11.50;;;;;;;;;;5007129;28;25062;-67
2024/02/12 10:21:31;;;;;;;24.25;11.95;;;;;;;;;;5004738;28;25080;-67
2024/02/12 10:24:03;;;;;;;23.45;12.02;;;;;;;;;;5002188;28;25067;-67
2024/02/12 10:26:29;;;;;;;22.90;11.52;;;;;;;;;;5005519;28;25074;-66
2024/02/12 10:28:57;;;;;;;27.63;11.40;;;;;;;;;;5003337;28;25110;-67
2024/02/12 10:31:23;;;;;;;21.55;11.45;;;;;;;;;;4998079;28;25104;-67
2024/02/12 10:33:51;;;;;;;26.40;10.10;;;;;;;;;;4987567;28;25054;-68
2024/02/12 10:36:20;;;;;;;18.48;8.20;;;;;;;;;;5006099;28;25056;-66
2024/02/12 10:38:50;;;;;;;19.90;9.25;;;;;;;;;;4999604;28;25161;-67
2024/02/12 10:41:22;;;;;;;19.95;10.25;;;;;;;;;;5001868;28;25089;-69
2024/02/12 10:43:51;;;;;;;23.52;8.43;;;;;;;;;;5004506;28;25078;-69
2024/02/12 10:46:17;;;;;;;20.17;9.15;;;;;;;;;;5003313;28;25058;-67
2024/02/12 10:48:45;;;;;;;22.95;8.70;;;;;;;;;;5003960;28;25056;-67
2024/02/12 10:51:11;;;;;;;22.80;8.75;;;;;;;;;;5002970;28;25129;-67
2024/02/12 10:53:39;;;;;;;23.08;8.75;;;;;;;;;;5004843;28;25151;-68
2024/02/12 10:56:07;;;;;;;17.98;8.57;;;;;;;;;;5003754;28;25063;-67
2024/02/12 10:58:33;;;;;;;16.55;8.93;;;;;;;;;;4998145;28;25102;-67
2024/02/12 11:01:01;;;;;;;17.02;8.10;;;;;;;;;;4997169;28;25085;-66
2024/02/12 11:03:32;;;;;;;19.33;7.95;;;;;;;;;;5002592;28;25077;-66
2024/02/12 11:05:59;;;;;;;13.85;7.00;;;;;;;;;;5002202;28;25078;-67
2024/02/12 11:08:27;;;;;;;12.48;6.38;;;;;;;;;;5000226;28;25058;-68
2024/02/12 11:10:57;;;;;;;15.00;6.30;;;;;;;;;;5002912;28;25078;-65
2024/02/12 11:13:23;;;;;;;16.73;8.02;;;;;;;;;;4999864;28;25068;-67
2024/02/12 11:15:49;;;;;;;15.40;7.00;;;;;;;;;;5006120;28;25083;-68
2024/02/12 11:18:15;;;;;;;16.48;7.05;;;;;;;;;;5006928;28;25136;-68
2024/02/12 11:20:51;;;;;;;12.43;5.78;;;;;;;;;;5008931;28;25158;-68
2024/02/12 11:23:21;;;;;;;21.92;6.55;;;;;;;;;;5005826;28;25046;-67
2024/02/12 11:25:48;;;;;;;19.55;6.50;;;;;;;;;;5006336;28;25078;-66
2024/02/12 11:28:15;;;;;;;18.25;6.43;;;;;;;;;;5009213;28;25080;-68
2024/02/12 11:30:42;;;;;;;17.88;5.68;;;;;;;;;;5006773;28;25071;-67
2024/02/12 11:33:11;;;;;;;15.07;4.47;;;;;;;;;;5008935;28;25075;-70
2024/02/12 11:35:38;;;;;;;13.40;5.10;;;;;;;;;;5009000;28;25053;-67
2024/02/12 11:38:04;;;;;;;15.82;5.47;;;;;;;;;;5007651;28;25069;-66
2024/02/12 11:40:30;;;;;;;17.73;4.60;;;;;;;;;;5007566;28;25051;-65
2024/02/12 11:42:58;;;;;;;15.32;4.13;;;;;;;;;;5004390;28;25078;-65
2024/02/12 11:45:25;;;;;;;14.95;3.97;;;;;;;;;;5006146;28;25071;-65
2024/02/12 11:47:51;;;;;;;14.57;4.28;;;;;;;;;;5008912;28;25057;-67
2024/02/12 11:50:24;;;;;;;13.25;3.75;;;;;;;;;;5011090;28;25063;-67
2024/02/12 11:52:50;;;;;;;15.05;4.20;;;;;;;;;;5011542;28;25051;-66
2024/02/12 11:55:16;;;;;;;9.10;4.00;;;;;;;;;;5009513;28;25053;-66
2024/02/12 11:57:43;;;;;;;16.98;3.38;;;;;;;;;;5003841;28;25067;-66
2024/02/12 12:00:19;;;;;;;10.90;4.20;;;;;;;;;;4994143;28;25162;-67
2024/02/12 12:02:50;;;;;;;16.98;4.00;;;;;;;;;;5005455;28;25067;-66
2024/02/12 12:05:21;;;;;;;13.37;3.37;;;;;;;;;;5006356;28;25180;-68
2024/02/12 12:07:47;;;;;;;14.55;4.10;;;;;;;;;;5007961;28;25174;-68
2024/02/12 12:10:20;;;;;;;13.77;5.18;;;;;;;;;;5009627;28;25102;-66
2024/02/12 12:12:47;;;;;;;9.45;3.40;;;;;;;;;;5021948;28;25086;-67
2024/02/12 12:15:13;;;;;;;10.30;3.83;;;;;;;;;;5028021;28;25086;-64
2024/02/12 12:17:39;;;;;;;8.52;3.00;;;;;;;;;;5025231;28;25065;-65
2024/02/12 12:20:09;;;;;;;15.45;3.10;;;;;;;;;;5021057;28;25059;-67
2024/02/12 12:22:38;;;;;;;13.70;2.70;;;;;;;;;;5014116;28;25056;-67
2024/02/12 12:25:06;;;;;;;10.88;3.13;;;;;;;;;;5005409;28;25119;-68
2024/02/12 12:27:33;;;;;;;8.85;2.38;;;;;;;;;;5012785;28;25078;-67
2024/02/12 12:30:09;;;;;;;8.98;2.53;;;;;;;;;;5009900;28;25072;-68
2024/02/12 12:32:35;;;;;;;20.92;4.93;;;;;;;;;;5011778;28;25112;-65
2024/02/12 12:35:03;;;;;;;6.30;2.75;;;;;;;;;;5008676;28;25075;-67
2024/02/12 12:37:31;;;;;;;12.30;3.80;;;;;;;;;;5011049;28;25066;-71
2024/02/12 12:39:57;;;;;;;10.10;2.40;;;;;;;;;;5006448;28;25067;-72
2024/02/12 12:42:23;;;;;;;11.23;2.97;;;;;;;;;;5008873;28;25084;-68
2024/02/12 12:44:51;;;;;;;11.50;3.33;;;;;;;;;;5009259;28;25093;-70
2024/02/12 12:47:18;;;;;;;10.73;2.90;;;;;;;;;;5006791;28;25065;-68
2024/02/12 12:49:44;;;;;;;11.35;2.95;;;;;;;;;;4995481;28;25139;-71
2024/02/12 12:52:10;;;;;;;9.60;2.85;;;;;;;;;;5007962;28;25062;-68
2024/02/12 12:54:39;;;;;;;15.35;2.78;;;;;;;;;;5008341;28;25063;-66
2024/02/12 12:57:06;;;;;;;7.13;2.75;;;;;;;;;;5002088;28;25110;-68
2024/02/12 12:59:32;;;;;;;12.63;2.72;;;;;;;;;;5004745;28;25056;-68
2024/02/12 13:01:58;;;;;;;12.73;2.67;;;;;;;;;;4990069;28;25165;-65
2024/02/12 13:04:24;;;;;;;7.90;2.80;;;;;;;;;;5005081;28;25125;-68
2024/02/12 13:06:52;;;;;;;7.45;2.05;;;;;;;;;;5010071;28;25068;-69
2024/02/12 13:09:18;;;;;;;9.57;2.95;;;;;;;;;;5005995;28;25041;-64
2024/02/12 13:11:46;;;;;;;12.98;2.67;;;;;;;;;;4988913;28;25071;-67
2024/02/12 13:14:12;;;;;;;8.50;2.47;;;;;;;;;;5005331;28;25066;-66
2024/02/12 13:16:38;;;;;;;9.65;2.75;;;;;;;;;;5003621;28;25093;-67
2024/02/12 13:19:04;;;;;;;8.85;2.40;;;;;;;;;;5003763;28;25097;-66
2024/02/12 13:21:30;;;;;;;9.43;2.47;;;;;;;;;;5002421;28;25139;-67
2024/02/12 13:23:57;;;;;;;9.05;1.85;;;;;;;;;;5003320;28;25057;-69
2024/02/12 13:26:24;;;;;;;7.45;1.58;;;;;;;;;;4992891;28;25105;-68
2024/02/12 13:28:51;;;;;;;10.30;1.83;;;;;;;;;;5005779;28;25079;-66
2024/02/12 13:31:20;;;;;;;11.90;3.60;;;;;;;;;;5004447;28;25100;-68
2024/02/12 13:33:46;;;;;;;9.45;2.63;;;;;;;;;;5003973;28;25084;-67
2024/02/12 13:36:12;;;;;;;8.07;1.35;;;;;;;;;;4986593;28;25087;-66
2024/02/12 13:38:39;;;;;;;9.25;1.83;;;;;;;;;;4984246;28;25049;-67
2024/02/12 13:41:06;;;;;;;8.90;1.98;;;;;;;;;;4997378;28;25076;-70
2024/02/12 13:43:32;;;;;;;7.40;2.15;;;;;;;;;;4992451;28;25068;-71
2024/02/12 13:46:01;;;;;;;7.05;2.15;;;;;;;;;;4974574;28;25065;-68
2024/02/12 13:48:27;;;;;;;6.95;1.88;;;;;;;;;;4992195;28;25045;-70
2024/02/12 13:50:53;;;;;;;13.70;2.05;;;;;;;;;;5000399;28;25064;-67
2024/02/12 13:53:19;;;;;;;14.10;2.30;;;;;;;;;;4988149;28;25060;-66
2024/02/12 13:55:46;;;;;;;6.28;2.05;;;;;;;;;;4990724;28;25062;-65
2024/02/12 13:58:12;;;;;;;7.22;1.98;;;;;;;;;;4997383;28;25073;-67
2024/02/12 14:00:43;;;;;;;11.60;1.85;;;;;;;;;;4985066;28;25073;-66
2024/02/12 14:03:09;;;;;;;11.93;2.13;;;;;;;;;;4980993;28;25090;-68
2024/02/12 14:05:35;;;;;;;11.27;2.10;;;;;;;;;;4997489;28;25050;-72
2024/02/12 14:08:04;;;;;;;12.52;2.80;;;;;;;;;;4999124;28;25070;-65
2024/02/12 14:10:30;;;;;;;11.43;2.25;;;;;;;;;;4995893;28;25148;-66
2024/02/12 14:13:00;;;;;;;12.25;2.28;;;;;;;;;;4997119;28;25076;-67
2024/02/12 14:15:26;;;;;;;14.55;2.17;;;;;;;;;;4991762;28;25107;-67
2024/02/12 14:17:53;;;;;;;14.52;2.80;;;;;;;;;;5006296;28;25539;-67
2024/02/12 14:20:20;;;;;;;10.55;2.42;;;;;;;;;;4996031;28;25080;-67
2024/02/12 14:22:47;;;;;;;12.05;1.70;;;;;;;;;;4991924;28;25057;-67
2024/02/12 14:25:14;;;;;;;11.77;2.10;;;;;;;;;;5001400;28;25066;-67
2024/02/12 14:27:40;;;;;;;8.07;2.13;;;;;;;;;;5000495;28;25122;-68
2024/02/12 14:30:14;;;;;;;9.73;2.33;;;;;;;;;;5004672;28;25053;-65
2024/02/12 14:32:42;;;;;;;9.55;2.03;;;;;;;;;;4998397;28;25127;-66
2024/02/12 14:35:09;;;;;;;9.70;2.33;;;;;;;;;;5001779;28;25074;-66
2024/02/12 14:37:35;;;;;;;13.23;2.13;;;;;;;;;;5009300;28;25070;-67